createdAt,value
2023-03-06T00:01:05.430Z,100569.00
2023-03-06T00:03:33.836Z,100556.00
2023-03-06T00:06:02.031Z,100566.00
2023-03-06T00:08:30.471Z,100564.00
2023-03-06T00:10:58.159Z,100568.00
2023-03-06T00:13:26.968Z,100553.00
2023-03-06T00:15:54.388Z,100549.00
2023-03-06T00:18:21.659Z,100547.00
2023-03-06T00:20:49.007Z,100541.00
2023-03-06T00:23:16.548Z,100532.00
2023-03-06T00:25:46.187Z,100529.00
2023-03-06T00:28:15.868Z,100531.00
2023-03-06T00:30:44.693Z,100523.00
2023-03-06T00:33:12.346Z,100532.00
2023-03-06T00:35:41.261Z,100525.00
2023-03-06T00:38:12.621Z,100526.00
2023-03-06T00:40:40.570Z,100520.00
2023-03-06T00:43:07.832Z,100521.00
2023-03-06T00:45:35.302Z,100518.00
2023-03-06T00:48:02.489Z,100512.00
2023-03-06T00:50:29.864Z,100510.00
2023-03-06T00:52:56.938Z,100509.00
2023-03-06T00:55:24.306Z,100504.00
2023-03-06T00:57:51.771Z,100499.00
2023-03-06T01:00:19.643Z,100502.00
2023-03-06T01:02:50.150Z,100501.00
2023-03-06T01:05:17.550Z,100494.00
2023-03-06T01:07:47.400Z,100484.00
2023-03-06T01:10:15.018Z,100495.00
2023-03-06T01:12:42.219Z,100484.00
2023-03-06T01:15:11.626Z,100488.00
2023-03-06T01:17:39.149Z,100482.00
2023-03-06T01:20:07.551Z,100479.00
2023-03-06T01:22:34.769Z,100480.00
2023-03-06T01:25:02.063Z,100481.00
2023-03-06T01:27:29.270Z,100486.00
2023-03-06T01:29:56.758Z,100477.00
2023-03-06T01:32:24.266Z,100474.00
2023-03-06T01:34:51.644Z,100468.00
2023-03-06T01:37:18.904Z,100464.00
2023-03-06T01:39:46.140Z,100454.00
2023-03-06T01:42:16.733Z,100464.00
2023-03-06T01:45:15.255Z,100462.00
2023-03-06T01:47:48.556Z,100465.00
2023-03-06T01:50:19.512Z,100467.00
2023-03-06T01:53:00.182Z,100470.00
2023-03-06T01:55:36.031Z,100451.00
2023-03-06T01:58:12.554Z,100460.00
2023-03-06T02:00:40.605Z,100459.00
2023-03-06T02:03:18.208Z,100461.00
2023-03-06T02:05:46.953Z,100454.00
2023-03-06T02:08:20.395Z,100459.00
2023-03-06T02:11:17.040Z,100455.00
2023-03-06T02:13:46.518Z,100445.00
2023-03-06T02:16:24.539Z,100434.00
2023-03-06T02:18:54.128Z,100442.00
2023-03-06T02:21:29.397Z,100440.00
2023-03-06T02:24:37.969Z,100453.00
2023-03-06T02:27:10.659Z,100450.00
2023-03-06T02:29:41.217Z,100449.00
2023-03-06T02:32:08.911Z,100448.00
2023-03-06T02:34:41.938Z,100445.00
2023-03-06T02:37:15.059Z,100431.00
2023-03-06T02:39:55.520Z,100440.00
2023-03-06T02:42:32.278Z,100430.00
2023-03-06T02:45:29.661Z,100423.00
2023-03-06T02:48:23.852Z,100423.00
2023-03-06T02:50:57.437Z,100419.00
2023-03-06T02:53:38.266Z,100417.00
2023-03-06T02:56:06.791Z,100419.00
2023-03-06T02:58:35.012Z,100403.00
2023-03-06T03:01:05.785Z,100410.00
2023-03-06T03:03:33.785Z,100390.00
2023-03-06T03:06:04.547Z,100405.00
2023-03-06T03:08:33.123Z,100393.00
2023-03-06T03:11:01.654Z,100391.00
2023-03-06T03:13:29.262Z,100396.00
2023-03-06T03:16:04.754Z,100370.00
2023-03-06T03:18:35.936Z,100387.00
2023-03-06T03:21:13.533Z,100380.00
2023-03-06T03:23:42.266Z,100371.00
2023-03-06T03:26:17.724Z,100380.00
2023-03-06T03:28:46.331Z,100381.00
2023-03-06T03:31:14.884Z,100393.00
2023-03-06T03:33:42.642Z,100384.00
2023-03-06T03:36:13.664Z,100395.00
2023-03-06T03:38:43.869Z,100385.00
2023-03-06T03:41:11.048Z,100387.00
2023-03-06T03:43:38.315Z,100387.00
2023-03-06T03:46:06.274Z,100356.00
2023-03-06T03:48:33.687Z,100382.00
2023-03-06T03:51:13.552Z,100369.00
2023-03-06T03:53:40.773Z,100379.00
2023-03-06T03:56:08.244Z,100369.00
2023-03-06T03:58:35.408Z,100358.00
2023-03-06T04:01:02.762Z,100361.00
2023-03-06T04:03:29.967Z,100360.00
2023-03-06T04:05:58.208Z,100344.00
2023-03-06T04:08:27.352Z,100350.00
2023-03-06T04:10:55.404Z,100352.00
2023-03-06T04:13:23.375Z,100338.00
2023-03-06T04:15:53.642Z,100344.00
2023-03-06T04:18:22.136Z,100341.00
2023-03-06T04:20:50.440Z,100339.00
2023-03-06T04:23:19.662Z,100336.00
2023-03-06T04:25:47.245Z,100332.00
2023-03-06T04:28:15.054Z,100332.00
2023-03-06T04:30:42.844Z,100332.00
2023-03-06T04:33:10.281Z,100320.00
2023-03-06T04:35:37.777Z,100313.00
2023-03-06T04:38:06.171Z,100319.00
2023-03-06T04:40:35.929Z,100321.00
2023-03-06T04:43:05.474Z,100313.00
2023-03-06T04:45:38.320Z,100318.00
2023-03-06T04:48:06.478Z,100312.00
2023-03-06T04:50:34.322Z,100317.00
2023-03-06T04:53:03.654Z,100311.00
2023-03-06T04:55:30.964Z,100317.00
2023-03-06T04:57:59.128Z,100317.00
2023-03-06T05:00:32.029Z,100320.00
2023-03-06T05:03:01.697Z,100316.00
2023-03-06T05:05:30.323Z,100309.00
2023-03-06T05:08:02.135Z,100315.00
2023-03-06T05:10:29.382Z,100317.00
2023-03-06T05:12:56.808Z,100313.00
2023-03-06T05:15:24.252Z,100317.00
2023-03-06T05:17:51.603Z,100309.00
2023-03-06T05:20:19.223Z,100308.00
2023-03-06T05:22:46.365Z,100305.00
2023-03-06T05:25:14.120Z,100302.00
2023-03-06T05:27:42.017Z,100298.00
2023-03-06T05:30:14.190Z,100305.00
2023-03-06T05:32:41.740Z,100296.00
2023-03-06T05:35:20.586Z,100296.00
2023-03-06T05:37:49.312Z,100293.00
2023-03-06T05:40:21.504Z,100292.00
2023-03-06T05:42:49.555Z,100285.00
2023-03-06T05:45:20.508Z,100288.00
2023-03-06T05:47:48.216Z,100291.00
2023-03-06T05:50:15.905Z,100291.00
2023-03-06T05:52:46.063Z,100286.00
2023-03-06T05:55:16.874Z,100280.00
2023-03-06T05:57:44.497Z,100283.00
2023-03-06T06:00:18.624Z,100279.00
2023-03-06T06:02:47.854Z,100279.00
2023-03-06T06:05:15.629Z,100281.00
2023-03-06T06:07:49.817Z,100286.00
2023-03-06T06:10:18.159Z,100280.00
2023-03-06T06:12:46.126Z,100272.00
2023-03-06T06:15:15.167Z,100277.00
2023-03-06T06:17:42.899Z,100290.00
2023-03-06T06:20:11.587Z,100281.00
2023-03-06T06:22:39.247Z,100281.00
2023-03-06T06:25:13.621Z,100283.00
2023-03-06T06:27:44.202Z,100292.00
2023-03-06T06:30:13.623Z,100290.00
2023-03-06T06:32:41.474Z,100286.00
2023-03-06T06:35:11.911Z,100283.00
2023-03-06T06:37:39.892Z,100276.00
2023-03-06T06:40:08.974Z,100284.00
2023-03-06T06:42:39.818Z,100288.00
2023-03-06T06:45:45.828Z,100288.00
2023-03-06T06:48:55.501Z,100295.00
2023-03-06T06:51:25.325Z,100285.00
2023-03-06T06:53:53.999Z,100277.00
2023-03-06T06:56:22.079Z,100287.00
2023-03-06T06:59:01.316Z,100288.00
2023-03-06T07:01:37.865Z,100280.00
2023-03-06T07:04:05.583Z,100284.00
2023-03-06T07:06:33.156Z,100273.00
2023-03-06T07:09:01.265Z,100287.00
2023-03-06T07:11:29.824Z,100291.00
2023-03-06T07:13:58.430Z,100288.00
2023-03-06T07:16:27.505Z,100288.00
2023-03-06T07:18:57.088Z,100253.00
2023-03-06T07:21:25.798Z,100281.00
2023-03-06T07:23:57.984Z,100270.00
2023-03-06T07:26:28.540Z,100287.00
2023-03-06T07:28:56.899Z,100284.00
2023-03-06T07:31:27.432Z,100280.00
2023-03-06T07:33:55.339Z,100284.00
2023-03-06T07:36:24.894Z,100288.00
2023-03-06T07:38:53.066Z,100267.00
2023-03-06T07:41:22.588Z,100273.00
2023-03-06T07:43:51.111Z,100266.00
2023-03-06T07:46:19.800Z,100284.00
2023-03-06T07:48:47.500Z,100281.00
2023-03-06T07:51:21.731Z,100277.00
2023-03-06T07:53:51.795Z,100275.00
2023-03-06T07:56:19.200Z,100275.00
2023-03-06T07:58:48.494Z,100271.00
2023-03-06T08:01:20.209Z,100268.00
2023-03-06T08:03:50.686Z,100282.00
2023-03-06T08:06:24.908Z,100271.00
2023-03-06T08:08:55.228Z,100275.00
2023-03-06T08:11:26.808Z,100278.00
2023-03-06T08:13:56.333Z,100281.00
2023-03-06T08:16:29.056Z,100282.00
2023-03-06T08:18:57.663Z,100275.00
2023-03-06T08:21:28.383Z,100279.00
2023-03-06T08:23:56.761Z,100274.00
2023-03-06T08:26:31.534Z,100281.00
2023-03-06T08:29:02.488Z,100283.00
2023-03-06T08:31:45.801Z,100280.00
2023-03-06T08:34:17.784Z,100286.00
2023-03-06T08:36:45.781Z,100284.00
2023-03-06T08:39:14.445Z,100257.00
2023-03-06T08:41:42.701Z,100275.00
2023-03-06T08:44:11.365Z,100284.00
2023-03-06T08:46:39.258Z,100285.00
2023-03-06T08:49:06.925Z,100275.00
2023-03-06T08:51:34.532Z,100283.00
2023-03-06T08:54:02.091Z,100280.00
2023-03-06T08:56:35.026Z,100277.00
2023-03-06T08:59:05.474Z,100269.00
2023-03-06T09:01:36.928Z,100272.00
2023-03-06T09:04:10.953Z,100284.00
2023-03-06T09:06:42.636Z,100284.00
2023-03-06T09:09:11.356Z,100276.00
2023-03-06T09:11:40.018Z,100287.00
2023-03-06T09:14:07.723Z,100288.00
2023-03-06T09:16:35.832Z,100275.00
2023-03-06T09:19:04.090Z,100286.00
2023-03-06T09:21:31.807Z,100290.00
2023-03-06T09:24:00.712Z,100286.00
2023-03-06T09:26:43.440Z,100279.00
2023-03-06T09:29:13.183Z,100286.00
2023-03-06T09:31:40.980Z,100288.00
2023-03-06T09:34:08.772Z,100293.00
2023-03-06T09:36:53.388Z,100287.00
2023-03-06T09:39:23.283Z,100286.00
2023-03-06T09:41:54.662Z,100276.00
2023-03-06T09:44:36.042Z,100287.00
2023-03-06T09:47:43.813Z,100270.00
2023-03-06T09:50:30.863Z,100265.00
2023-03-06T09:53:48.589Z,100268.00
2023-03-06T09:56:22.476Z,100273.00
2023-03-06T09:58:59.066Z,100272.00
2023-03-06T10:01:30.622Z,100281.00
2023-03-06T10:04:37.430Z,100281.00
2023-03-06T10:07:21.043Z,100286.00
2023-03-06T10:10:06.479Z,100274.00
2023-03-06T10:12:41.401Z,100269.00
2023-03-06T10:15:33.043Z,100277.00
2023-03-06T10:18:03.610Z,100275.00
2023-03-06T10:21:18.367Z,100269.00
2023-03-06T10:24:12.463Z,100273.00
2023-03-06T10:27:22.599Z,100275.00
2023-03-06T10:30:26.461Z,100280.00
2023-03-06T10:32:59.912Z,100277.00
2023-03-06T10:35:49.832Z,100270.00
2023-03-06T10:38:38.623Z,100268.00
2023-03-06T10:41:36.895Z,100271.00
2023-03-06T10:44:11.266Z,100276.00
2023-03-06T10:46:49.225Z,100276.00
2023-03-06T10:49:38.407Z,100259.00
2023-03-06T10:52:10.596Z,100265.00
2023-03-06T10:54:45.393Z,100266.00
2023-03-06T10:57:28.663Z,100267.00
2023-03-06T11:00:06.222Z,100274.00
2023-03-06T11:02:42.259Z,100257.00
2023-03-06T11:05:21.920Z,100254.00
2023-03-06T11:08:00.928Z,100278.00
2023-03-06T11:10:31.896Z,100267.00
2023-03-06T11:13:08.384Z,100268.00
2023-03-06T11:15:36.705Z,100266.00
2023-03-06T11:18:09.464Z,100270.00
2023-03-06T11:20:57.103Z,100255.00
2023-03-06T11:23:46.926Z,100268.00
2023-03-06T11:26:18.148Z,100262.00
2023-03-06T11:29:19.784Z,100255.00
2023-03-06T11:32:03.112Z,100254.00
2023-03-06T11:35:03.219Z,100254.00
2023-03-06T11:37:54.452Z,100251.00
2023-03-06T11:40:37.177Z,100254.00
2023-03-06T11:43:41.678Z,100241.00
2023-03-06T11:46:35.421Z,100253.00
2023-03-06T11:49:41.525Z,100244.00
2023-03-06T11:52:23.446Z,100242.00
2023-03-06T11:55:00.582Z,100252.00
2023-03-06T11:58:01.981Z,100245.00
2023-03-06T12:01:07.440Z,100239.00
2023-03-06T12:03:59.363Z,100234.00
2023-03-06T12:06:33.455Z,100234.00
2023-03-06T12:09:29.629Z,100226.00
2023-03-06T12:12:49.061Z,100227.00
2023-03-06T12:15:40.375Z,100214.00
2023-03-06T12:18:38.529Z,100217.00
2023-03-06T12:21:40.388Z,100210.00
2023-03-06T12:24:36.247Z,100209.00
2023-03-06T12:27:12.216Z,100195.00
2023-03-06T12:30:32.484Z,100194.00
2023-03-06T12:33:46.912Z,100205.00
2023-03-06T12:36:44.901Z,100201.00
2023-03-06T12:39:55.088Z,100196.00
2023-03-06T12:42:47.789Z,100188.00
2023-03-06T12:45:31.891Z,100193.00
2023-03-06T12:48:04.407Z,100197.00
2023-03-06T12:50:40.270Z,100174.00
2023-03-06T12:53:27.005Z,100182.00
2023-03-06T12:55:56.169Z,100190.00
2023-03-06T12:58:30.107Z,100178.00
2023-03-06T13:01:07.047Z,100176.00
2023-03-06T13:03:59.847Z,100179.00
2023-03-06T13:07:23.288Z,100173.00
2023-03-06T13:10:34.392Z,100167.00
2023-03-06T13:13:30.247Z,100167.00
2023-03-06T13:16:33.464Z,100166.00
2023-03-06T13:19:36.380Z,100162.00
2023-03-06T13:22:19.153Z,100147.00
2023-03-06T13:24:48.329Z,100155.00
2023-03-06T13:27:57.733Z,100150.00
2023-03-06T13:30:42.621Z,100159.00
2023-03-06T13:33:48.861Z,100153.00
2023-03-06T13:36:39.566Z,100144.00
2023-03-06T13:39:12.899Z,100152.00
2023-03-06T13:42:00.046Z,100158.00
2023-03-06T13:44:30.673Z,100157.00
2023-03-06T13:50:49.896Z,100153.00
2023-03-06T13:53:39.133Z,100149.00
2023-03-06T13:56:31.422Z,100138.00
2023-03-06T13:59:25.577Z,100146.00
2023-03-06T14:02:18.088Z,100143.00
2023-03-06T14:05:06.145Z,100141.00
2023-03-06T14:07:48.868Z,100137.00
2023-03-06T14:10:27.370Z,100145.00
2023-03-06T14:13:20.222Z,100144.00
2023-03-06T14:15:54.748Z,100146.00
2023-03-06T14:18:39.078Z,100147.00
2023-03-06T14:21:17.223Z,100145.00
2023-03-06T14:23:49.410Z,100147.00
2023-03-06T14:26:21.215Z,100134.00
2023-03-06T14:29:01.437Z,100147.00
2023-03-06T14:31:38.776Z,100148.00
2023-03-06T14:34:27.110Z,100147.00
2023-03-06T14:37:06.003Z,100168.00
2023-03-06T14:39:47.956Z,100154.00
2023-03-06T14:42:28.599Z,100161.00
2023-03-06T14:45:19.466Z,100161.00
2023-03-06T14:47:55.460Z,100159.00
2023-03-06T14:52:27.539Z,100168.00
2023-03-06T14:59:51.656Z,100174.00
2023-03-06T15:18:54.512Z,100123.00
2023-03-06T15:21:55.321Z,100131.00
2023-03-06T15:24:50.450Z,100112.00
2023-03-06T15:27:27.152Z,100117.00
2023-03-06T15:30:12.843Z,100113.00
2023-03-06T15:32:47.846Z,100105.00
2023-03-06T15:35:35.207Z,100108.00
2023-03-06T15:38:31.907Z,100110.00
2023-03-06T15:41:02.873Z,100092.00
2023-03-06T15:43:39.086Z,100089.00
2023-03-06T15:46:12.926Z,100079.00
2023-03-06T15:48:58.252Z,100077.00
2023-03-06T15:51:28.431Z,100077.00
2023-03-06T15:54:11.963Z,100073.00
2023-03-06T15:56:51.168Z,100068.00
2023-03-06T15:59:40.871Z,100073.00
2023-03-06T16:02:24.841Z,100054.00
2023-03-06T16:05:01.488Z,100064.00
2023-03-06T16:07:32.853Z,100066.00
2023-03-06T16:10:01.881Z,100061.00
2023-03-06T16:12:35.213Z,100053.00
2023-03-06T16:15:05.266Z,100048.00
2023-03-06T16:17:43.996Z,100041.00
2023-03-06T16:20:23.961Z,100049.00
2023-03-06T16:22:53.921Z,100035.00
2023-03-06T16:25:24.801Z,100041.00
2023-03-06T16:27:58.496Z,100026.00
2023-03-06T16:30:32.538Z,100017.00
2023-03-06T16:33:00.474Z,100022.00
2023-03-06T16:35:28.359Z,100012.00
2023-03-06T16:37:55.709Z,100013.00
2023-03-06T16:40:23.613Z,100012.00
2023-03-06T16:42:53.431Z,100015.00
2023-03-06T16:45:23.904Z,100001.00
2023-03-06T16:47:53.027Z,100008.00
2023-03-06T16:50:36.105Z,100007.00
2023-03-06T16:53:04.310Z,100003.00
2023-03-06T16:55:36.996Z,100000.00
2023-03-06T16:58:05.037Z,100010.00
2023-03-06T17:00:33.642Z,100009.00
2023-03-06T17:03:04.508Z,99997.00
2023-03-06T17:05:35.262Z,100011.00
2023-03-06T17:08:03.932Z,99991.00
2023-03-06T17:10:31.704Z,100009.00
2023-03-06T17:12:59.042Z,100006.00
2023-03-06T17:15:26.821Z,99998.00
2023-03-06T17:17:54.279Z,99998.00
2023-03-06T17:20:22.060Z,100002.00
2023-03-06T17:22:50.045Z,99998.00
2023-03-06T17:25:20.485Z,99997.00
2023-03-06T17:27:48.665Z,100000.00
2023-03-06T17:30:17.096Z,100002.00
2023-03-06T17:32:47.186Z,99996.00
2023-03-06T17:35:18.485Z,99992.00
2023-03-06T17:37:46.596Z,100006.00
2023-03-06T17:40:16.014Z,100005.00
2023-03-06T17:42:43.668Z,99998.00
2023-03-06T17:45:12.254Z,99992.00
2023-03-06T17:47:40.049Z,99995.00
2023-03-06T17:50:07.701Z,99993.00
2023-03-06T17:52:35.435Z,99989.00
2023-03-06T17:55:06.011Z,99983.00
2023-03-06T17:57:34.248Z,99990.00
2023-03-06T18:00:06.049Z,99989.00
2023-03-06T18:02:33.622Z,99983.00
2023-03-06T18:05:07.389Z,99977.00
2023-03-06T18:07:34.830Z,99973.00
2023-03-06T18:10:02.186Z,99968.00
2023-03-06T18:12:29.779Z,99972.00
2023-03-06T18:14:56.965Z,99983.00
2023-03-06T18:17:24.577Z,99971.00
2023-03-06T18:19:52.358Z,99976.00
2023-03-06T18:22:19.608Z,99969.00
2023-03-06T18:24:46.880Z,99963.00
2023-03-06T18:27:14.105Z,99970.00
2023-03-06T18:29:42.303Z,99972.00
2023-03-06T18:32:10.990Z,99964.00
2023-03-06T18:34:38.447Z,99947.00
2023-03-06T18:37:05.626Z,99950.00
2023-03-06T18:39:33.138Z,99949.00
2023-03-06T18:42:00.424Z,99944.00
2023-03-06T18:44:27.817Z,99932.00
2023-03-06T18:46:57.921Z,99946.00
2023-03-06T18:49:25.683Z,99942.00
2023-03-06T18:51:53.216Z,99929.00
2023-03-06T18:54:20.591Z,99926.00
2023-03-06T18:56:48.308Z,99928.00
2023-03-06T18:59:18.996Z,99931.00
2023-03-06T19:01:47.951Z,99912.00
2023-03-06T19:04:15.675Z,99913.00
2023-03-06T19:06:45.972Z,99923.00
2023-03-06T19:09:13.506Z,99894.00
2023-03-06T19:11:47.040Z,99914.00
2023-03-06T19:14:15.549Z,99902.00
2023-03-06T19:16:43.447Z,99894.00
2023-03-06T19:19:11.532Z,99912.00
2023-03-06T19:21:38.960Z,99892.00
2023-03-06T19:24:07.746Z,99896.00
2023-03-06T19:26:35.125Z,99883.00
2023-03-06T19:29:02.515Z,99888.00
2023-03-06T19:31:29.912Z,99896.00
2023-03-06T19:33:57.972Z,99895.00
2023-03-06T19:36:33.560Z,99879.00
2023-03-06T19:39:07.349Z,99870.00
2023-03-06T19:41:35.038Z,99888.00
2023-03-06T19:44:03.444Z,99880.00
2023-03-06T19:46:31.973Z,99878.00
2023-03-06T19:49:10.102Z,99883.00
2023-03-06T19:51:38.107Z,99879.00
2023-03-06T19:54:05.444Z,99851.00
2023-03-06T19:56:33.855Z,99858.00
2023-03-06T19:59:01.144Z,99866.00
2023-03-06T20:01:29.090Z,99864.00
2023-03-06T20:03:59.376Z,99861.00
2023-03-06T20:06:31.623Z,99857.00
2023-03-06T20:08:58.917Z,99841.00
2023-03-06T20:11:31.818Z,99837.00
2023-03-06T20:14:02.524Z,99838.00
2023-03-06T20:16:31.482Z,99826.00
2023-03-06T20:19:01.301Z,99828.00
2023-03-06T20:21:32.376Z,99823.00
2023-03-06T20:23:59.967Z,99826.00
2023-03-06T20:26:29.123Z,99833.00
2023-03-06T20:28:57.400Z,99812.00
2023-03-06T20:31:29.210Z,99812.00
2023-03-06T20:33:59.661Z,99806.00
2023-03-06T20:36:36.878Z,99811.00
2023-03-06T20:39:10.062Z,99801.00
2023-03-06T20:41:37.441Z,99803.00
2023-03-06T20:44:07.958Z,99792.00
2023-03-06T20:46:35.424Z,99800.00
2023-03-06T20:49:02.810Z,99797.00
2023-03-06T20:51:39.241Z,99793.00
2023-03-06T20:54:13.748Z,99788.00
2023-03-06T20:56:43.120Z,99788.00
2023-03-06T21:02:27.840Z,99799.00
2023-03-06T21:04:56.278Z,99785.00
2023-03-06T21:08:08.838Z,99770.00
2023-03-06T21:10:43.656Z,99777.00
2023-03-06T21:13:12.420Z,99766.00
2023-03-06T21:15:50.466Z,99764.00
2023-03-06T21:18:23.468Z,99762.00
2023-03-06T21:26:07.762Z,99757.00
2023-03-06T21:28:36.067Z,99754.00
2023-03-06T21:31:10.450Z,99746.00
2023-03-06T21:33:58.933Z,99741.00
2023-03-06T21:36:31.709Z,99742.00
2023-03-06T21:39:04.538Z,99723.00
2023-03-06T21:41:36.035Z,99726.00
2023-03-06T21:44:10.593Z,99725.00
2023-03-06T21:46:39.738Z,99724.00
2023-03-06T21:49:11.179Z,99705.00
2023-03-06T21:51:39.632Z,99696.00
2023-03-06T21:54:13.093Z,99707.00
2023-03-06T21:56:41.655Z,99702.00
2023-03-06T21:59:13.649Z,99704.00
2023-03-06T22:01:58.150Z,99697.00
2023-03-06T22:04:32.746Z,99690.00
2023-03-06T22:07:43.231Z,99691.00
2023-03-06T22:10:28.676Z,99695.00
2023-03-06T22:13:08.270Z,99673.00
2023-03-06T22:16:10.090Z,99688.00
2023-03-06T22:19:05.143Z,99673.00
2023-03-06T22:21:43.849Z,99670.00
2023-03-06T22:24:16.064Z,99668.00
2023-03-06T22:26:50.197Z,99655.00
2023-03-06T22:29:22.712Z,99657.00
2023-03-06T22:31:55.411Z,99657.00
2023-03-06T22:34:42.003Z,99652.00
2023-03-06T22:37:29.156Z,99646.00
2023-03-06T22:40:04.137Z,99633.00
2023-03-06T22:42:46.233Z,99638.00
2023-03-06T22:45:20.926Z,99639.00
2023-03-06T22:48:11.309Z,99633.00
2023-03-06T22:50:58.205Z,99632.00
2023-03-06T22:53:26.610Z,99629.00
2023-03-06T22:56:01.339Z,99616.00
2023-03-06T22:58:55.651Z,99636.00
2023-03-06T23:01:50.908Z,99618.00
2023-03-06T23:04:20.548Z,99629.00
2023-03-06T23:06:54.327Z,99624.00
2023-03-06T23:09:29.311Z,99620.00
2023-03-06T23:11:57.921Z,99625.00
2023-03-06T23:14:28.262Z,99618.00
2023-03-06T23:16:57.836Z,99613.00
2023-03-06T23:19:35.780Z,99632.00
2023-03-06T23:22:11.158Z,99609.00
2023-03-06T23:24:45.495Z,99622.00
2023-03-06T23:31:36.223Z,99620.00
2023-03-06T23:36:50.846Z,99611.00
2023-03-06T23:39:29.179Z,99609.00
2023-03-06T23:42:08.599Z,99612.00
2023-03-06T23:44:50.864Z,99612.00
2023-03-06T23:50:36.861Z,99597.00
2023-03-06T23:53:04.913Z,99603.00
2023-03-06T23:55:36.030Z,99604.00
2023-03-06T23:58:07.273Z,99601.00
